createdAt,value
2023-01-12T00:02:19.053Z,96406.28
2023-01-12T00:04:45.838Z,96413.69
2023-01-12T00:07:13.607Z,96415.81
2023-01-12T00:09:40.665Z,96416.66
2023-01-12T00:12:09.510Z,96416.31
2023-01-12T00:14:36.560Z,96413.00
2023-01-12T00:17:03.808Z,96405.34
2023-01-12T00:19:31.844Z,96408.81
2023-01-12T00:21:59.608Z,96407.34
2023-01-12T00:24:27.729Z,96411.28
2023-01-12T00:26:54.912Z,96407.72
2023-01-12T00:29:21.921Z,96411.78
2023-01-12T00:31:48.784Z,96409.88
2023-01-12T00:34:15.833Z,96417.63
2023-01-12T00:36:42.742Z,96427.78
2023-01-12T00:39:09.399Z,96429.06
2023-01-12T00:41:57.921Z,96433.50
2023-01-12T00:44:43.376Z,96433.38
2023-01-12T00:47:10.736Z,96438.59
2023-01-12T00:49:37.970Z,96445.88
2023-01-12T00:52:06.069Z,96436.28
2023-01-12T00:54:33.195Z,96436.28
2023-01-12T00:56:59.705Z,96448.63
2023-01-12T00:59:26.227Z,96448.00
2023-01-12T01:01:52.742Z,96450.63
2023-01-12T01:04:19.293Z,96449.69
2023-01-12T01:06:45.785Z,96463.66
2023-01-12T01:09:12.829Z,96459.34
2023-01-12T01:11:39.644Z,96461.47
2023-01-12T01:14:06.223Z,96465.38
2023-01-12T01:16:32.896Z,96462.13
2023-01-12T01:18:59.535Z,96452.69
2023-01-12T01:21:26.202Z,96456.75
2023-01-12T01:23:53.013Z,96448.38
2023-01-12T01:26:20.870Z,96452.31
2023-01-12T01:28:47.527Z,96460.63
2023-01-12T01:31:15.477Z,96453.25
2023-01-12T01:33:42.179Z,96454.66
2023-01-12T01:36:09.208Z,96448.38
2023-01-12T01:38:36.032Z,96448.38
2023-01-12T01:41:03.213Z,96452.78
2023-01-12T01:43:30.063Z,96451.00
2023-01-12T01:46:11.940Z,96455.47
2023-01-12T01:52:14.336Z,96462.72
2023-01-12T01:54:46.408Z,96468.19
2023-01-12T01:57:14.249Z,96469.84
2023-01-12T01:59:43.833Z,96475.03
2023-01-12T02:02:10.685Z,96466.50
2023-01-12T02:04:37.208Z,96470.31
2023-01-12T02:07:06.261Z,96473.16
2023-01-12T02:09:32.848Z,96474.00
2023-01-12T02:12:17.833Z,96478.59
2023-01-12T02:15:04.425Z,96476.91
2023-01-12T02:17:49.747Z,96491.22
2023-01-12T02:20:16.239Z,96487.84
2023-01-12T02:22:52.853Z,96485.22
2023-01-12T02:25:19.337Z,96489.53
2023-01-12T02:27:51.851Z,96493.72
2023-01-12T02:30:28.084Z,96488.88
2023-01-12T02:32:54.561Z,96486.78
2023-01-12T02:35:39.837Z,96487.13
2023-01-12T02:38:17.454Z,96483.97
2023-01-12T02:40:54.714Z,96489.88
2023-01-12T02:43:25.881Z,96490.94
2023-01-12T02:45:55.238Z,96492.81
2023-01-12T02:48:40.180Z,96486.63
2023-01-12T02:51:13.561Z,96485.69
2023-01-12T02:53:43.274Z,96484.44
2023-01-12T02:56:10.696Z,96483.69
2023-01-12T02:58:39.083Z,96484.53
2023-01-12T03:01:07.448Z,96488.31
2023-01-12T03:03:35.250Z,96478.03
2023-01-12T03:06:01.865Z,96475.09
2023-01-12T03:08:30.377Z,96474.00
2023-01-12T03:11:03.164Z,96483.06
2023-01-12T03:13:31.765Z,96470.44
2023-01-12T03:15:59.854Z,96481.59
2023-01-12T03:18:29.466Z,96477.91
2023-01-12T03:20:59.766Z,96482.09
2023-01-12T03:23:46.374Z,96484.22
2023-01-12T03:26:14.731Z,96478.34
2023-01-12T03:28:43.780Z,96476.34
2023-01-12T03:31:11.931Z,96474.25
2023-01-12T03:33:39.849Z,96473.25
2023-01-12T03:36:30.658Z,96466.81
2023-01-12T03:38:57.163Z,96475.88
2023-01-12T03:41:31.508Z,96469.63
2023-01-12T03:44:01.959Z,96477.00
2023-01-12T03:46:38.564Z,96486.56
2023-01-12T03:49:31.591Z,96491.72
2023-01-12T03:52:00.366Z,96487.28
2023-01-12T03:54:28.214Z,96484.75
2023-01-12T03:56:55.203Z,96483.19
2023-01-12T03:59:22.272Z,96501.69
2023-01-12T04:01:49.213Z,96509.69
2023-01-12T04:04:15.911Z,96515.28
2023-01-12T04:06:42.425Z,96512.13
2023-01-12T04:09:08.946Z,96509.91
2023-01-12T04:11:53.909Z,96513.00
2023-01-12T04:14:20.593Z,96518.13
2023-01-12T04:16:47.101Z,96522.63
2023-01-12T04:19:13.648Z,96526.44
2023-01-12T04:21:58.728Z,96536.94
2023-01-12T04:24:25.231Z,96532.31
2023-01-12T04:26:51.809Z,96535.16
2023-01-12T04:29:18.393Z,96533.06
2023-01-12T04:31:44.920Z,96543.78
2023-01-12T04:34:11.511Z,96544.72
2023-01-12T04:36:38.146Z,96548.91
2023-01-12T04:39:04.682Z,96550.69
2023-01-12T04:41:31.255Z,96556.47
2023-01-12T04:43:57.784Z,96558.78
2023-01-12T04:46:24.312Z,96559.19
2023-01-12T04:48:50.936Z,96556.25
2023-01-12T04:51:17.672Z,96560.25
2023-01-12T04:53:44.342Z,96559.13
2023-01-12T04:56:10.903Z,96554.03
2023-01-12T04:58:37.426Z,96559.41
2023-01-12T05:01:10.209Z,96543.88
2023-01-12T05:03:36.893Z,96550.88
2023-01-12T05:06:03.735Z,96551.63
2023-01-12T05:08:48.950Z,96549.91
2023-01-12T05:11:15.659Z,96562.00
2023-01-12T05:13:42.236Z,96561.88
2023-01-12T05:16:10.382Z,96556.63
2023-01-12T05:18:36.981Z,96560.19
2023-01-12T05:21:04.024Z,96557.97
2023-01-12T05:23:30.644Z,96569.78
2023-01-12T05:26:00.783Z,96568.94
2023-01-12T05:28:28.009Z,96563.56
2023-01-12T05:30:55.261Z,96569.53
2023-01-12T05:33:21.807Z,96571.16
2023-01-12T05:35:48.341Z,96577.94
2023-01-12T05:38:14.990Z,96570.84
2023-01-12T05:40:41.544Z,96580.47
2023-01-12T05:43:29.241Z,96572.50
2023-01-12T05:45:55.807Z,96575.88
2023-01-12T05:48:22.352Z,96581.44
2023-01-12T05:50:48.848Z,96581.50
2023-01-12T05:53:15.363Z,96585.09
2023-01-12T05:55:41.887Z,96588.34
2023-01-12T05:58:08.398Z,96592.97
2023-01-12T06:00:35.018Z,96576.41
2023-01-12T06:03:04.463Z,96582.00
2023-01-12T06:05:30.955Z,96582.84
2023-01-12T06:07:57.926Z,96586.59
2023-01-12T06:10:24.469Z,96594.56
2023-01-12T06:13:09.508Z,96599.78
2023-01-12T06:15:36.102Z,96589.41
2023-01-12T06:18:02.681Z,96601.59
2023-01-12T06:20:29.267Z,96600.31
2023-01-12T06:22:55.790Z,96610.53
2023-01-12T06:25:22.389Z,96612.22
2023-01-12T06:27:48.901Z,96601.34
2023-01-12T06:30:15.436Z,96600.63
2023-01-12T06:32:41.991Z,96608.03
2023-01-12T06:35:18.781Z,96615.91
2023-01-12T06:37:45.828Z,96616.72
2023-01-12T06:40:12.764Z,96616.97
2023-01-12T06:42:42.396Z,96616.44
2023-01-12T06:45:09.314Z,96606.13
2023-01-12T06:47:44.015Z,96602.66
2023-01-12T06:50:10.890Z,96608.13
2023-01-12T06:52:37.434Z,96622.38
2023-01-12T06:55:04.151Z,96628.88
2023-01-12T06:57:30.694Z,96627.28
2023-01-12T06:59:57.263Z,96624.00
2023-01-12T07:02:23.776Z,96629.56
2023-01-12T07:04:50.280Z,96625.72
2023-01-12T07:07:16.925Z,96634.06
2023-01-12T07:09:43.435Z,96640.59
2023-01-12T07:12:09.979Z,96650.34
2023-01-12T07:14:36.504Z,96650.16
2023-01-12T07:17:03.280Z,96646.50
2023-01-12T07:19:29.939Z,96652.03
2023-01-12T07:21:56.458Z,96650.13
2023-01-12T07:24:23.052Z,96652.22
2023-01-12T07:26:53.893Z,96637.94
2023-01-12T07:29:20.419Z,96633.75
2023-01-12T07:31:49.084Z,96639.94
2023-01-12T07:34:15.688Z,96640.00
2023-01-12T07:36:42.765Z,96640.94
2023-01-12T07:39:10.740Z,96642.75
2023-01-12T07:41:55.838Z,96646.69
2023-01-12T07:44:22.338Z,96656.25
2023-01-12T07:46:48.953Z,96650.72
2023-01-12T07:49:15.779Z,96647.31
2023-01-12T07:51:42.298Z,96646.41
2023-01-12T07:54:08.839Z,96644.72
2023-01-12T07:56:35.704Z,96640.63
2023-01-12T07:59:02.282Z,96631.09
2023-01-12T08:01:29.346Z,96633.06
2023-01-12T08:03:55.960Z,96636.94
2023-01-12T08:06:22.487Z,96635.75
2023-01-12T08:08:49.009Z,96638.47
2023-01-12T08:11:15.581Z,96632.50
2023-01-12T08:13:42.159Z,96631.09
2023-01-12T08:16:12.806Z,96633.84
2023-01-12T08:18:44.028Z,96638.56
2023-01-12T08:21:13.016Z,96633.41
2023-01-12T08:23:42.001Z,96645.03
2023-01-12T08:26:12.805Z,96648.78
2023-01-12T08:28:45.532Z,96650.69
2023-01-12T08:31:14.062Z,96647.69
2023-01-12T08:33:41.092Z,96646.50
2023-01-12T08:36:09.557Z,96648.78
2023-01-12T08:38:36.366Z,96639.31
2023-01-12T08:41:21.614Z,96640.53
2023-01-12T08:44:03.219Z,96636.94
2023-01-12T08:46:34.256Z,96637.91
2023-01-12T08:49:00.778Z,96642.34
2023-01-12T08:51:28.325Z,96641.16
2023-01-12T08:53:54.814Z,96638.59
2023-01-12T08:56:21.520Z,96649.75
2023-01-12T08:58:48.738Z,96653.00
2023-01-12T09:01:16.852Z,96651.00
2023-01-12T09:03:48.510Z,96655.09
2023-01-12T09:06:25.658Z,96640.09
2023-01-12T09:09:03.123Z,96637.13
2023-01-12T09:11:30.750Z,96650.09
2023-01-12T09:13:58.645Z,96643.16
2023-01-12T09:16:29.522Z,96653.47
2023-01-12T09:18:56.713Z,96650.56
2023-01-12T09:21:24.492Z,96652.25
2023-01-12T09:23:51.574Z,96650.66
2023-01-12T09:26:19.564Z,96649.94
2023-01-12T09:28:46.587Z,96647.69
2023-01-12T09:31:18.881Z,96644.31
2023-01-12T09:33:46.369Z,96645.16
2023-01-12T09:36:14.576Z,96637.13
2023-01-12T09:38:42.439Z,96639.75
2023-01-12T09:41:11.476Z,96634.69
2023-01-12T09:43:57.530Z,96628.88
2023-01-12T09:46:47.580Z,96624.75
2023-01-12T09:49:14.810Z,96622.09
2023-01-12T09:52:10.755Z,96613.69
2023-01-12T09:54:37.317Z,96621.53
2023-01-12T09:57:28.751Z,96611.00
2023-01-12T09:59:55.885Z,96617.91
2023-01-12T10:02:22.480Z,96619.34
2023-01-12T10:04:50.557Z,96618.22
2023-01-12T10:07:18.637Z,96616.75
2023-01-12T10:09:45.648Z,96616.31
2023-01-12T10:12:15.505Z,96618.13
2023-01-12T10:14:44.811Z,96613.84
2023-01-12T10:17:38.587Z,96619.09
2023-01-12T10:20:08.666Z,96617.88
2023-01-12T10:22:42.172Z,96615.41
2023-01-12T10:25:27.482Z,96616.28
2023-01-12T10:27:55.203Z,96596.78
2023-01-12T10:30:26.411Z,96598.31
2023-01-12T10:32:53.004Z,96604.78
2023-01-12T10:35:21.272Z,96597.97
2023-01-12T10:37:49.842Z,96599.91
2023-01-12T10:40:21.492Z,96594.75
2023-01-12T10:43:20.097Z,96590.44
2023-01-12T10:46:03.295Z,96583.59
2023-01-12T10:48:31.024Z,96589.31
2023-01-12T10:51:00.825Z,96581.78
2023-01-12T10:53:29.548Z,96582.31
2023-01-12T10:55:56.488Z,96583.66
2023-01-12T10:58:29.587Z,96578.25
2023-01-12T11:00:56.423Z,96574.66
2023-01-12T11:03:33.998Z,96569.13
2023-01-12T11:06:18.888Z,96570.78
2023-01-12T11:08:45.425Z,96566.03
2023-01-12T11:11:16.522Z,96556.09
2023-01-12T11:13:44.478Z,96555.47
2023-01-12T11:16:17.186Z,96553.94
2023-01-12T11:19:10.281Z,96553.13
2023-01-12T11:21:39.484Z,96539.41
2023-01-12T11:24:10.459Z,96537.66
2023-01-12T11:26:45.481Z,96537.91
2023-01-12T11:29:30.650Z,96533.22
2023-01-12T11:32:00.999Z,96525.06
2023-01-12T11:34:33.121Z,96515.22
2023-01-12T11:37:04.001Z,96518.66
2023-01-12T11:39:31.559Z,96518.16
2023-01-12T11:42:20.148Z,96515.84
2023-01-12T11:44:55.366Z,96513.09
2023-01-12T11:47:23.733Z,96511.00
2023-01-12T11:50:05.558Z,96505.84
2023-01-12T11:52:32.757Z,96503.78
2023-01-12T11:54:59.371Z,96504.47
2023-01-12T11:57:25.845Z,96508.88
2023-01-12T12:00:04.405Z,96502.72
2023-01-12T12:02:40.239Z,96500.13
2023-01-12T12:05:10.043Z,96499.59
2023-01-12T12:07:49.593Z,96496.25
2023-01-12T12:10:21.312Z,96499.59
2023-01-12T12:12:56.708Z,96496.25
2023-01-12T12:15:30.351Z,96490.19
2023-01-12T12:18:02.817Z,96487.78
2023-01-12T12:20:55.572Z,96480.78
2023-01-12T12:23:29.749Z,96472.34
2023-01-12T12:26:10.394Z,96472.22
2023-01-12T12:28:36.838Z,96470.31
2023-01-12T12:31:13.869Z,96465.78
2023-01-12T12:33:52.252Z,96473.19
2023-01-12T12:36:26.678Z,96476.00
2023-01-12T12:39:11.981Z,96473.00
2023-01-12T12:42:09.222Z,96474.78
2023-01-12T12:45:13.312Z,96464.47
2023-01-12T12:47:49.076Z,96464.72
2023-01-12T12:50:21.402Z,96463.28
2023-01-12T12:52:53.106Z,96463.03
2023-01-12T12:55:19.688Z,96455.16
2023-01-12T12:58:03.300Z,96454.22
2023-01-12T13:00:40.415Z,96458.88
2023-01-12T13:03:07.282Z,96455.25
2023-01-12T13:05:41.559Z,96455.03
2023-01-12T13:08:19.353Z,96449.84
2023-01-12T13:10:50.331Z,96457.50
2023-01-12T13:13:24.036Z,96451.94
2023-01-12T13:15:50.660Z,96454.91
2023-01-12T13:18:36.059Z,96448.69
2023-01-12T13:21:02.878Z,96453.31
2023-01-12T13:23:43.385Z,96446.50
2023-01-12T13:26:24.181Z,96452.31
2023-01-12T13:29:10.705Z,96456.75
2023-01-12T13:31:37.338Z,96454.53
2023-01-12T13:34:22.513Z,96449.53
2023-01-12T13:37:24.521Z,96454.41
2023-01-12T13:39:55.756Z,96453.09
2023-01-12T13:42:40.594Z,96451.44
2023-01-12T13:45:11.841Z,96456.38
2023-01-12T13:47:38.549Z,96461.34
2023-01-12T13:50:05.352Z,96454.81
2023-01-12T13:52:35.952Z,96456.53
2023-01-12T13:55:03.143Z,96445.00
2023-01-12T13:57:30.898Z,96455.09
2023-01-12T13:59:58.875Z,96460.47
2023-01-12T14:02:27.764Z,96453.28
2023-01-12T14:05:04.355Z,96456.25
2023-01-12T14:07:33.905Z,96448.91
2023-01-12T14:10:23.056Z,96456.75
2023-01-12T14:12:49.567Z,96453.19
2023-01-12T14:15:37.403Z,96451.00
2023-01-12T14:18:09.304Z,96449.16
2023-01-12T14:20:43.987Z,96443.44
2023-01-12T14:23:18.129Z,96449.16
2023-01-12T14:25:45.564Z,96449.56
2023-01-12T14:28:15.688Z,96450.22
2023-01-12T14:30:46.409Z,96445.06
2023-01-12T14:33:17.427Z,96446.97
2023-01-12T14:35:45.363Z,96441.81
2023-01-12T14:38:12.615Z,96453.50
2023-01-12T14:40:39.317Z,96446.22
2023-01-12T14:43:24.485Z,96444.13
2023-01-12T14:46:28.314Z,96447.75
2023-01-12T14:48:56.126Z,96444.78
2023-01-12T14:51:24.966Z,96445.19
2023-01-12T14:53:56.349Z,96442.22
2023-01-12T14:56:25.581Z,96440.41
2023-01-12T14:58:52.289Z,96438.53
2023-01-12T15:01:33.192Z,96436.38
2023-01-12T15:04:00.243Z,96432.13
2023-01-12T15:06:26.976Z,96434.31
2023-01-12T15:08:55.081Z,96434.81
2023-01-12T15:11:35.486Z,96424.75
2023-01-12T15:14:03.325Z,96427.16
2023-01-12T15:16:48.634Z,96430.19
2023-01-12T15:19:33.639Z,96427.41
2023-01-12T15:22:19.045Z,96439.59
2023-01-12T15:25:04.250Z,96438.41
2023-01-12T15:27:30.937Z,96435.06
2023-01-12T15:29:57.517Z,96426.94
2023-01-12T15:32:45.548Z,96428.84
2023-01-12T15:35:17.674Z,96424.44
2023-01-12T15:37:44.261Z,96424.31
2023-01-12T15:40:12.900Z,96427.78
2023-01-12T15:42:39.500Z,96426.94
2023-01-12T15:45:14.951Z,96420.81
2023-01-12T15:47:41.513Z,96428.09
2023-01-12T15:50:08.177Z,96426.44
2023-01-12T15:52:34.715Z,96431.16
2023-01-12T15:55:01.247Z,96430.94
2023-01-12T15:57:27.812Z,96437.97
2023-01-12T15:59:54.329Z,96428.00
2023-01-12T16:02:25.964Z,96432.69
2023-01-12T16:04:52.708Z,96428.38
2023-01-12T16:07:19.286Z,96432.13
2023-01-12T16:09:47.827Z,96430.56
2023-01-12T16:12:15.223Z,96430.22
2023-01-12T16:14:41.807Z,96425.56
2023-01-12T16:17:08.339Z,96432.03
2023-01-12T16:19:41.275Z,96431.81
2023-01-12T16:22:28.246Z,96429.28
2023-01-12T16:24:55.962Z,96435.88
2023-01-12T16:27:24.123Z,96427.50
2023-01-12T16:29:51.221Z,96428.59
2023-01-12T16:32:18.184Z,96437.69
2023-01-12T16:34:45.875Z,96425.84
2023-01-12T16:37:14.302Z,96432.88
2023-01-12T16:39:41.065Z,96432.66
2023-01-12T16:42:07.869Z,96437.78
2023-01-12T16:44:37.418Z,96433.97
2023-01-12T16:47:08.499Z,96430.13
2023-01-12T16:49:36.072Z,96437.06
2023-01-12T16:52:04.208Z,96444.09
2023-01-12T16:54:30.711Z,96447.81
2023-01-12T16:56:58.903Z,96445.06
2023-01-12T16:59:25.642Z,96436.78
2023-01-12T17:01:52.491Z,96438.22
2023-01-12T17:04:22.197Z,96446.34
2023-01-12T17:06:48.957Z,96450.88
2023-01-12T17:09:15.662Z,96451.13
2023-01-12T17:11:43.799Z,96464.63
2023-01-12T17:14:24.323Z,96454.94
2023-01-12T17:16:52.391Z,96460.63
2023-01-12T17:19:19.747Z,96465.44
2023-01-12T17:21:47.288Z,96462.28
2023-01-12T17:24:16.694Z,96458.94
2023-01-12T17:26:43.372Z,96457.03
2023-01-12T17:29:13.051Z,96457.97
2023-01-12T17:31:40.104Z,96461.91
2023-01-12T17:34:07.357Z,96450.06
2023-01-12T17:36:34.333Z,96450.25
2023-01-12T17:39:01.471Z,96457.69
2023-01-12T17:41:46.451Z,96456.44
2023-01-12T17:44:13.025Z,96461.47
2023-01-12T17:46:39.875Z,96447.34
2023-01-12T17:49:07.735Z,96448.53
2023-01-12T17:51:34.871Z,96452.22
2023-01-12T17:54:02.763Z,96462.88
2023-01-12T17:56:31.517Z,96467.41
2023-01-12T17:58:58.373Z,96472.03
2023-01-12T18:01:26.732Z,96472.16
2023-01-12T18:03:53.634Z,96469.06
2023-01-12T18:06:26.573Z,96472.78
2023-01-12T18:08:56.437Z,96467.88
2023-01-12T18:11:23.222Z,96468.88
2023-01-12T18:13:49.777Z,96462.16
2023-01-12T18:16:16.743Z,96460.34
2023-01-12T18:18:44.210Z,96455.22
2023-01-12T18:21:11.950Z,96451.41
2023-01-12T18:23:38.920Z,96442.69
2023-01-12T18:26:09.692Z,96442.44
2023-01-12T18:28:36.226Z,96440.78
2023-01-12T18:31:06.755Z,96438.97
2023-01-12T18:33:33.288Z,96436.69
2023-01-12T18:35:59.823Z,96435.00
2023-01-12T18:38:27.304Z,96426.41
2023-01-12T18:41:29.527Z,96429.03
2023-01-12T18:43:57.721Z,96432.72
2023-01-12T18:46:44.170Z,96429.59
2023-01-12T18:49:10.846Z,96437.59
2023-01-12T18:51:56.119Z,96437.19
2023-01-12T18:54:22.619Z,96428.56
2023-01-12T18:56:49.919Z,96427.97
2023-01-12T18:59:16.838Z,96426.41
2023-01-12T19:01:43.542Z,96427.56
2023-01-12T19:04:14.464Z,96431.16
2023-01-12T19:06:45.092Z,96432.09
2023-01-12T19:09:31.400Z,96438.31
2023-01-12T19:11:59.002Z,96428.94
2023-01-12T19:14:44.261Z,96426.38
2023-01-12T19:17:29.490Z,96432.78
2023-01-12T19:19:57.027Z,96432.91
2023-01-12T19:22:42.302Z,96432.16
2023-01-12T19:25:34.268Z,96431.44
2023-01-12T19:28:19.393Z,96425.03
2023-01-12T19:30:46.885Z,96426.63
2023-01-12T19:33:16.526Z,96419.09
2023-01-12T19:35:43.800Z,96426.97
2023-01-12T19:38:10.740Z,96424.94
2023-01-12T19:40:45.566Z,96423.47
2023-01-12T19:43:20.548Z,96418.56
2023-01-12T19:45:48.490Z,96410.69
2023-01-12T19:48:15.769Z,96417.81
2023-01-12T19:50:44.139Z,96412.91
2023-01-12T19:53:15.529Z,96413.41
2023-01-12T19:55:42.709Z,96412.38
2023-01-12T19:58:09.817Z,96411.84
2023-01-12T20:00:37.774Z,96414.59
2023-01-12T20:03:04.378Z,96418.78
2023-01-12T20:05:30.904Z,96407.75
2023-01-12T20:07:57.910Z,96405.78
2023-01-12T20:10:24.529Z,96411.59
2023-01-12T20:12:52.611Z,96414.41
2023-01-12T20:15:20.888Z,96411.16
2023-01-12T20:17:48.341Z,96412.94
2023-01-12T20:20:15.529Z,96404.22
2023-01-12T20:22:42.182Z,96399.81
2023-01-12T20:25:08.847Z,96404.63
2023-01-12T20:27:36.194Z,96397.94
2023-01-12T20:30:02.927Z,96396.28
2023-01-12T20:32:32.588Z,96409.50
2023-01-12T20:35:02.207Z,96404.34
2023-01-12T20:37:28.709Z,96404.53
2023-01-12T20:39:56.328Z,96393.41
2023-01-12T20:42:22.846Z,96398.06
2023-01-12T20:44:49.861Z,96399.94
2023-01-12T20:47:19.132Z,96401.72
2023-01-12T20:49:46.295Z,96395.84
2023-01-12T20:52:12.862Z,96395.00
2023-01-12T20:54:39.458Z,96395.94
2023-01-12T20:57:05.999Z,96390.81
2023-01-12T20:59:32.512Z,96392.28
2023-01-12T21:01:59.228Z,96391.53
2023-01-12T21:04:25.822Z,96396.97
2023-01-12T21:06:52.620Z,96382.41
2023-01-12T21:09:19.167Z,96382.63
2023-01-12T21:11:47.326Z,96382.63
2023-01-12T21:14:14.006Z,96382.63
2023-01-12T21:16:40.663Z,96383.78
2023-01-12T21:19:07.892Z,96379.13
2023-01-12T21:21:34.769Z,96379.13
2023-01-12T21:24:02.242Z,96380.09
2023-01-12T21:26:28.809Z,96373.91
2023-01-12T21:28:55.382Z,96375.69
2023-01-12T21:31:22.045Z,96376.44
2023-01-12T21:33:48.590Z,96372.44
2023-01-12T21:36:15.283Z,96371.19
2023-01-12T21:38:41.871Z,96370.66
2023-01-12T21:41:10.515Z,96377.91
2023-01-12T21:43:37.046Z,96370.97
2023-01-12T21:46:08.955Z,96369.19
2023-01-12T21:48:36.170Z,96368.13
2023-01-12T21:51:06.881Z,96370.66
2023-01-12T21:53:33.615Z,96374.84
2023-01-12T21:56:01.307Z,96376.75
2023-01-12T21:58:29.069Z,96371.81
2023-01-12T22:00:56.357Z,96374.13
2023-01-12T22:03:23.629Z,96374.84
2023-01-12T22:05:50.814Z,96379.16
2023-01-12T22:08:17.397Z,96369.72
2023-01-12T22:10:43.952Z,96378.75
2023-01-12T22:13:14.912Z,96378.41
2023-01-12T22:15:41.882Z,96385.34
2023-01-12T22:18:08.900Z,96372.97
2023-01-12T22:20:35.579Z,96372.25
2023-01-12T22:23:02.100Z,96380.13
2023-01-12T22:25:28.600Z,96377.16
2023-01-12T22:27:56.423Z,96379.66
2023-01-12T22:30:24.259Z,96378.63
2023-01-12T22:32:55.661Z,96377.91
2023-01-12T22:35:22.542Z,96370.75
2023-01-12T22:37:49.109Z,96370.03
2023-01-12T22:40:16.029Z,96360.25
2023-01-12T22:43:01.239Z,96356.78
2023-01-12T22:45:27.818Z,96342.00
2023-01-12T22:47:55.216Z,96346.84
2023-01-12T22:50:22.434Z,96346.84
2023-01-12T22:52:50.584Z,96346.91
2023-01-12T22:55:17.077Z,96345.03
2023-01-12T22:57:43.600Z,96346.63
2023-01-12T23:00:12.762Z,96351.97
2023-01-12T23:02:58.302Z,96338.97
2023-01-12T23:05:24.989Z,96340.31
2023-01-12T23:07:51.443Z,96337.69
2023-01-12T23:10:18.082Z,96333.16
2023-01-12T23:13:04.511Z,96324.97
2023-01-12T23:15:31.231Z,96328.44
2023-01-12T23:17:59.914Z,96317.81
2023-01-12T23:20:26.525Z,96311.84
2023-01-12T23:22:53.570Z,96314.59
2023-01-12T23:25:20.083Z,96308.59
2023-01-12T23:27:46.601Z,96299.69
2023-01-12T23:30:13.158Z,96296.94
2023-01-12T23:32:39.623Z,96303.13
2023-01-12T23:35:06.337Z,96300.19
2023-01-12T23:37:32.800Z,96298.41
2023-01-12T23:39:59.274Z,96304.88
2023-01-12T23:42:25.856Z,96304.38
2023-01-12T23:44:52.363Z,96307.13
2023-01-12T23:47:19.209Z,96307.94
2023-01-12T23:49:45.728Z,96309.63
2023-01-12T23:52:12.239Z,96308.34
2023-01-12T23:54:38.760Z,96312.97
2023-01-12T23:57:05.345Z,96318.81
2023-01-12T23:59:31.884Z,96318.50
